createdAt,value
2018-03-07T00:00:48.404Z,0.00
2018-03-07T00:01:48.545Z,0.00
2018-03-07T00:02:48.699Z,0.00
2018-03-07T00:03:48.855Z,0.00
2018-03-07T00:04:48.994Z,0.00
2018-03-07T00:05:49.144Z,0.00
2018-03-07T00:06:49.292Z,0.00
2018-03-07T00:07:49.446Z,0.00
2018-03-07T00:08:49.589Z,0.00
2018-03-07T00:09:49.742Z,0.00
2018-03-07T00:10:49.896Z,0.00
2018-03-07T00:11:50.041Z,0.00
2018-03-07T00:12:50.194Z,0.00
2018-03-07T00:13:50.339Z,0.00
2018-03-07T00:14:50.490Z,0.00
2018-03-07T00:15:50.636Z,0.00
2018-03-07T00:16:50.793Z,0.00
2018-03-07T00:17:50.937Z,0.00
2018-03-07T00:18:51.085Z,0.00
2018-03-07T00:19:51.244Z,0.00
2018-03-07T00:20:51.387Z,0.00
2018-03-07T00:21:51.540Z,0.00
2018-03-07T00:22:51.687Z,0.00
2018-03-07T00:23:51.846Z,0.00
2018-03-07T00:24:51.977Z,0.00
2018-03-07T00:25:52.125Z,0.00
2018-03-07T00:26:52.277Z,0.00
2018-03-07T00:27:52.424Z,0.00
2018-03-07T00:28:52.579Z,0.00
2018-03-07T00:29:52.721Z,0.00
2018-03-07T00:30:52.871Z,0.00
2018-03-07T00:31:53.018Z,0.00
2018-03-07T00:32:53.178Z,0.00
2018-03-07T00:33:53.319Z,0.00
2018-03-07T00:34:53.473Z,0.00
2018-03-07T00:35:53.621Z,0.00
2018-03-07T00:37:53.916Z,0.00
2018-03-07T00:38:54.066Z,0.00
2018-03-07T00:40:54.360Z,0.00
2018-03-07T00:41:54.500Z,0.00
2018-03-07T00:42:54.643Z,0.00
2018-03-07T00:43:54.795Z,0.00
2018-03-07T00:44:54.946Z,0.00
2018-03-07T00:45:55.109Z,0.00
2018-03-07T00:46:55.251Z,0.00
2018-03-07T00:47:55.401Z,0.00
2018-03-07T00:48:55.540Z,0.00
2018-03-07T00:49:55.690Z,0.00
2018-03-07T00:50:55.840Z,0.00
2018-03-07T00:51:55.987Z,0.00
2018-03-07T00:52:56.138Z,0.00
2018-03-07T00:53:56.304Z,0.00
2018-03-07T00:54:56.438Z,0.00
2018-03-07T00:55:56.587Z,0.00
2018-03-07T00:56:56.738Z,0.00
2018-03-07T00:57:56.887Z,0.00
2018-03-07T00:58:57.039Z,0.00
2018-03-07T00:59:57.186Z,0.00
2018-03-07T01:00:57.337Z,0.00
2018-03-07T01:01:57.491Z,0.00
2018-03-07T01:02:57.641Z,0.00
2018-03-07T01:03:57.787Z,0.00
2018-03-07T01:04:57.938Z,0.00
2018-03-07T01:05:58.086Z,0.00
2018-03-07T01:06:58.275Z,0.00
2018-03-07T01:07:58.379Z,0.00
2018-03-07T01:08:58.539Z,0.00
2018-03-07T01:09:58.681Z,0.00
2018-03-07T01:10:58.831Z,0.00
2018-03-07T01:11:58.978Z,0.00
2018-03-07T01:12:59.128Z,0.00
2018-03-07T01:13:59.281Z,0.00
2018-03-07T01:14:59.445Z,0.00
2018-03-07T01:15:59.582Z,0.00
2018-03-07T01:16:59.733Z,0.00
2018-03-07T01:17:59.881Z,0.00
2018-03-07T01:19:00.031Z,0.00
2018-03-07T01:20:00.181Z,0.00
2018-03-07T01:21:00.329Z,0.00
2018-03-07T01:22:00.480Z,0.00
2018-03-07T01:23:00.628Z,0.00
2018-03-07T01:24:00.788Z,0.00
2018-03-07T01:25:00.933Z,0.00
2018-03-07T01:26:01.081Z,0.00
2018-03-07T01:27:01.234Z,0.00
2018-03-07T01:28:01.379Z,0.00
2018-03-07T01:30:01.678Z,0.00
2018-03-07T01:31:01.817Z,0.00
2018-03-07T01:33:02.112Z,0.00
2018-03-07T01:34:02.277Z,0.00
2018-03-07T01:35:02.434Z,0.00
2018-03-07T01:36:02.560Z,0.00
2018-03-07T01:37:02.705Z,0.00
2018-03-07T01:38:02.861Z,0.00
2018-03-07T01:39:02.999Z,0.00
2018-03-07T01:40:03.150Z,0.00
2018-03-07T01:41:03.299Z,0.00
2018-03-07T01:42:03.446Z,0.00
2018-03-07T01:43:03.596Z,0.00
2018-03-07T01:44:03.756Z,0.00
2018-03-07T01:45:03.892Z,0.00
2018-03-07T01:46:04.037Z,0.00
2018-03-07T01:47:04.211Z,0.00
2018-03-07T01:48:04.329Z,0.00
2018-03-07T01:49:04.481Z,0.00
2018-03-07T01:50:04.629Z,0.00
2018-03-07T01:51:04.781Z,0.00
2018-03-07T01:52:04.932Z,0.00
2018-03-07T01:53:05.079Z,0.00
2018-03-07T01:54:05.231Z,0.00
2018-03-07T01:55:05.377Z,0.00
2018-03-07T01:56:05.528Z,0.00
2018-03-07T01:57:05.677Z,0.00
2018-03-07T01:58:05.825Z,0.00
2018-03-07T01:59:05.974Z,0.00
2018-03-07T02:00:06.131Z,0.00
2018-03-07T02:01:06.275Z,0.00
2018-03-07T02:02:06.421Z,0.00
2018-03-07T02:03:06.571Z,0.00
2018-03-07T02:04:06.721Z,0.00
2018-03-07T02:05:06.870Z,0.00
2018-03-07T02:06:07.019Z,0.00
2018-03-07T02:07:07.171Z,0.00
2018-03-07T02:08:07.348Z,0.00
2018-03-07T02:09:07.470Z,0.00
2018-03-07T02:10:07.622Z,0.00
2018-03-07T02:11:07.768Z,0.00
2018-03-07T02:12:07.927Z,0.00
2018-03-07T02:13:08.070Z,0.00
2018-03-07T02:14:08.224Z,0.00
2018-03-07T02:15:08.377Z,0.00
2018-03-07T02:16:08.522Z,0.00
2018-03-07T02:17:08.672Z,0.00
2018-03-07T02:18:08.823Z,0.00
2018-03-07T02:19:08.978Z,0.00
2018-03-07T02:20:09.126Z,0.00
2018-03-07T02:21:09.279Z,0.00
2018-03-07T02:22:09.433Z,0.00
2018-03-07T02:23:09.573Z,0.00
2018-03-07T02:25:09.865Z,0.00
2018-03-07T02:26:10.014Z,0.00
2018-03-07T02:27:10.167Z,0.00
2018-03-07T02:28:10.310Z,0.00
2018-03-07T02:29:10.468Z,0.00
2018-03-07T02:30:10.620Z,0.00
2018-03-07T02:31:10.764Z,0.00
2018-03-07T02:32:10.914Z,0.00
2018-03-07T02:33:11.063Z,0.00
2018-03-07T02:34:11.209Z,0.00
2018-03-07T02:35:11.366Z,0.00
2018-03-07T02:36:11.510Z,0.00
2018-03-07T02:37:11.668Z,0.00
2018-03-07T02:38:11.816Z,0.00
2018-03-07T02:39:11.963Z,0.00
2018-03-07T02:40:12.114Z,0.00
2018-03-07T02:41:12.258Z,0.00
2018-03-07T02:42:12.415Z,0.00
2018-03-07T02:43:12.562Z,0.00
2018-03-07T02:44:12.713Z,0.00
2018-03-07T02:45:12.856Z,0.00
2018-03-07T02:46:13.011Z,0.00
2018-03-07T02:47:13.163Z,0.00
2018-03-07T02:48:13.310Z,0.00
2018-03-07T02:49:13.462Z,0.00
2018-03-07T02:50:13.607Z,0.00
2018-03-07T02:51:13.751Z,0.00
2018-03-07T02:52:13.902Z,0.00
2018-03-07T02:53:14.053Z,0.00
2018-03-07T02:54:14.203Z,0.00
2018-03-07T02:55:14.349Z,0.00
2018-03-07T02:56:14.495Z,0.00
2018-03-07T02:57:14.656Z,0.00
2018-03-07T02:58:14.798Z,0.00
2018-03-07T02:59:14.953Z,0.00
2018-03-07T03:00:15.105Z,0.00
2018-03-07T03:01:15.250Z,0.00
2018-03-07T03:02:15.422Z,0.00
2018-03-07T03:03:15.557Z,0.00
2018-03-07T03:04:15.699Z,0.00
2018-03-07T03:05:15.850Z,0.00
2018-03-07T03:06:15.996Z,0.00
2018-03-07T03:07:16.151Z,0.00
2018-03-07T03:08:16.291Z,0.00
2018-03-07T03:09:16.450Z,0.00
2018-03-07T03:10:16.592Z,0.00
2018-03-07T03:11:16.741Z,0.00
2018-03-07T03:12:16.889Z,0.00
2018-03-07T03:13:17.039Z,0.00
2018-03-07T03:14:17.198Z,0.00
2018-03-07T03:15:17.348Z,0.00
2018-03-07T03:16:17.515Z,0.00
2018-03-07T03:17:17.634Z,0.00
2018-03-07T03:18:17.785Z,0.00
2018-03-07T03:19:17.990Z,0.00
2018-03-07T03:20:18.083Z,0.00
2018-03-07T03:21:18.247Z,0.00
2018-03-07T03:22:18.385Z,0.00
2018-03-07T03:23:18.533Z,0.00
2018-03-07T03:24:18.690Z,0.00
2018-03-07T03:25:18.832Z,0.00
2018-03-07T03:26:18.984Z,0.00
2018-03-07T03:27:19.126Z,0.00
2018-03-07T03:28:19.276Z,0.00
2018-03-07T03:29:19.430Z,0.00
2018-03-07T03:30:19.575Z,0.00
2018-03-07T03:31:19.732Z,0.00
2018-03-07T03:32:19.876Z,0.00
2018-03-07T03:33:20.027Z,0.00
2018-03-07T03:34:20.178Z,0.00
2018-03-07T03:35:20.325Z,0.00
2018-03-07T03:36:20.475Z,0.00
2018-03-07T03:37:20.629Z,0.00
2018-03-07T03:38:20.778Z,0.00
2018-03-07T03:39:20.926Z,0.00
2018-03-07T03:40:21.079Z,0.00
2018-03-07T03:41:21.221Z,0.00
2018-03-07T03:42:21.370Z,0.00
2018-03-07T03:43:21.519Z,0.00
2018-03-07T03:44:21.667Z,0.00
2018-03-07T03:45:21.818Z,0.00
2018-03-07T03:46:21.965Z,0.00
2018-03-07T03:47:22.117Z,0.00
2018-03-07T03:48:22.263Z,0.00
2018-03-07T03:49:22.416Z,0.00
2018-03-07T03:50:22.563Z,0.00
2018-03-07T03:51:22.710Z,0.00
2018-03-07T03:52:22.860Z,0.00
2018-03-07T03:53:23.010Z,0.00
2018-03-07T03:54:23.159Z,0.00
2018-03-07T03:55:23.307Z,0.00
2018-03-07T03:56:23.458Z,0.00
2018-03-07T03:57:23.609Z,0.00
2018-03-07T03:58:23.756Z,0.00
2018-03-07T03:59:24.147Z,0.00
2018-03-07T04:00:24.057Z,0.00
2018-03-07T04:01:24.206Z,0.00
2018-03-07T04:02:24.358Z,0.00
2018-03-07T04:03:24.501Z,0.00
2018-03-07T04:04:24.652Z,0.00
2018-03-07T04:05:24.800Z,0.00
2018-03-07T04:06:24.948Z,0.00
2018-03-07T04:07:25.102Z,0.00
2018-03-07T04:08:25.249Z,0.00
2018-03-07T04:09:25.398Z,0.00
2018-03-07T04:10:25.553Z,0.00
2018-03-07T04:11:25.928Z,0.00
2018-03-07T04:12:25.844Z,0.00
2018-03-07T04:13:25.990Z,0.00
2018-03-07T04:14:26.141Z,0.00
2018-03-07T04:15:26.287Z,0.00
2018-03-07T04:16:26.438Z,0.00
2018-03-07T04:17:26.585Z,0.00
2018-03-07T04:18:26.734Z,0.00
2018-03-07T04:19:26.883Z,0.00
2018-03-07T04:20:27.035Z,0.00
2018-03-07T04:21:27.185Z,0.00
2018-03-07T04:22:27.332Z,0.00
2018-03-07T04:23:27.481Z,0.00
2018-03-07T04:24:27.630Z,0.00
2018-03-07T04:25:27.779Z,0.00
2018-03-07T04:26:27.930Z,0.00
2018-03-07T04:27:28.077Z,0.00
2018-03-07T04:28:28.227Z,0.00
2018-03-07T04:29:28.377Z,0.00
2018-03-07T04:30:28.525Z,0.00
2018-03-07T04:31:28.679Z,0.00
2018-03-07T04:32:28.829Z,0.00
2018-03-07T04:33:28.976Z,0.00
2018-03-07T04:34:29.122Z,0.00
2018-03-07T04:35:29.274Z,0.00
2018-03-07T04:36:29.423Z,0.00
2018-03-07T04:37:29.572Z,0.00
2018-03-07T04:38:29.724Z,0.00
2018-03-07T04:39:29.869Z,0.00
2018-03-07T04:40:30.020Z,0.00
2018-03-07T04:41:30.171Z,0.00
2018-03-07T04:42:30.318Z,0.00
2018-03-07T04:43:30.469Z,0.00
2018-03-07T04:44:30.617Z,0.00
2018-03-07T04:45:31.008Z,0.00
2018-03-07T04:46:30.915Z,0.00
2018-03-07T04:47:31.064Z,0.00
2018-03-07T04:48:31.217Z,0.00
2018-03-07T04:49:31.367Z,0.00
2018-03-07T04:50:31.519Z,0.00
2018-03-07T04:51:31.902Z,0.00
2018-03-07T04:52:31.814Z,0.00
2018-03-07T04:53:31.962Z,0.00
2018-03-07T04:54:32.129Z,0.00
2018-03-07T04:55:32.260Z,0.00
2018-03-07T04:56:32.412Z,0.00
2018-03-07T04:57:32.561Z,0.00
2018-03-07T04:58:32.717Z,0.00
2018-03-07T04:59:32.864Z,0.00
2018-03-07T05:00:33.020Z,0.00
2018-03-07T05:01:33.165Z,0.00
2018-03-07T05:02:33.315Z,0.00
2018-03-07T05:03:33.461Z,0.00
2018-03-07T05:04:33.613Z,0.00
2018-03-07T05:05:33.763Z,0.00
2018-03-07T05:06:34.176Z,0.00
2018-03-07T05:07:34.065Z,0.00
2018-03-07T05:08:34.214Z,0.00
2018-03-07T05:09:34.366Z,0.00
2018-03-07T05:10:34.554Z,0.00
2018-03-07T05:11:34.660Z,0.00
2018-03-07T05:12:34.809Z,0.00
2018-03-07T05:13:34.959Z,0.00
2018-03-07T05:14:35.117Z,0.00
2018-03-07T05:15:35.260Z,0.00
2018-03-07T05:16:35.410Z,0.00
2018-03-07T05:17:35.555Z,0.00
2018-03-07T05:18:35.707Z,0.00
2018-03-07T05:19:35.854Z,0.00
2018-03-07T05:20:35.999Z,0.00
2018-03-07T05:21:36.151Z,0.00
2018-03-07T05:22:36.300Z,0.00
2018-03-07T05:23:36.451Z,0.00
2018-03-07T05:24:36.600Z,0.00
2018-03-07T05:25:36.748Z,0.00
2018-03-07T05:26:36.903Z,0.00
2018-03-07T05:27:37.051Z,0.00
2018-03-07T05:28:37.199Z,0.00
2018-03-07T05:29:37.352Z,0.00
2018-03-07T05:30:37.504Z,0.00
2018-03-07T05:31:37.647Z,0.00
2018-03-07T05:32:37.795Z,0.00
2018-03-07T05:33:37.947Z,0.00
2018-03-07T05:34:38.094Z,0.00
2018-03-07T05:35:38.242Z,0.00
2018-03-07T05:36:38.400Z,0.00
2018-03-07T05:37:38.550Z,0.00
2018-03-07T05:38:38.698Z,0.00
2018-03-07T05:39:38.847Z,0.00
2018-03-07T05:40:39.000Z,0.00
2018-03-07T05:41:39.148Z,0.00
2018-03-07T05:42:39.304Z,0.00
2018-03-07T05:43:39.808Z,0.00
2018-03-07T05:44:39.598Z,0.00
2018-03-07T05:45:39.744Z,0.00
2018-03-07T05:46:39.899Z,0.00
2018-03-07T05:47:40.043Z,0.00
2018-03-07T05:48:40.196Z,0.00
2018-03-07T05:49:40.344Z,0.00
2018-03-07T05:50:40.495Z,0.00
2018-03-07T05:51:40.642Z,0.00
2018-03-07T05:52:40.794Z,0.00
2018-03-07T05:53:40.958Z,0.00
2018-03-07T05:54:41.099Z,0.00
2018-03-07T05:55:41.248Z,0.00
2018-03-07T05:56:41.397Z,0.00
2018-03-07T05:57:41.545Z,0.00
2018-03-07T05:58:41.697Z,0.00
2018-03-07T05:59:41.847Z,0.00
2018-03-07T06:00:41.994Z,0.00
2018-03-07T06:01:42.158Z,0.00
2018-03-07T06:02:42.296Z,0.00
2018-03-07T06:03:42.449Z,0.00
2018-03-07T06:04:42.596Z,0.00
2018-03-07T06:05:42.747Z,0.00
2018-03-07T06:06:42.904Z,0.00
2018-03-07T06:07:43.048Z,0.00
2018-03-07T06:08:43.200Z,0.00
2018-03-07T06:09:43.351Z,0.00
2018-03-07T06:10:43.499Z,0.00
2018-03-07T06:11:43.648Z,0.00
2018-03-07T06:12:43.809Z,0.00
2018-03-07T06:13:43.949Z,0.00
2018-03-07T06:14:44.098Z,0.00
2018-03-07T06:15:44.244Z,0.00
2018-03-07T06:16:44.397Z,0.00
2018-03-07T06:17:44.550Z,0.00
2018-03-07T06:18:44.702Z,0.00
2018-03-07T06:19:44.848Z,0.00
2018-03-07T06:20:44.999Z,0.00
2018-03-07T06:21:45.199Z,0.00
2018-03-07T06:22:45.300Z,0.00
2018-03-07T06:23:45.707Z,0.00
2018-03-07T06:24:45.604Z,0.00
2018-03-07T06:25:45.758Z,0.00
2018-03-07T06:26:46.160Z,0.00
2018-03-07T06:27:46.061Z,0.00
2018-03-07T06:28:46.208Z,0.00
2018-03-07T06:29:46.368Z,5.63
2018-03-07T06:30:46.508Z,5.63
2018-03-07T06:31:46.659Z,5.63
2018-03-07T06:32:46.801Z,5.63
2018-03-07T06:33:46.957Z,5.63
2018-03-07T06:34:47.105Z,5.63
2018-03-07T06:35:47.253Z,5.63
2018-03-07T06:36:47.403Z,5.63
2018-03-07T06:37:47.551Z,5.63
2018-03-07T06:38:47.705Z,5.63
2018-03-07T06:39:47.854Z,5.63
2018-03-07T06:40:48.006Z,11.25
2018-03-07T06:41:48.161Z,11.25
2018-03-07T06:42:48.314Z,11.25
2018-03-07T06:43:48.459Z,11.25
2018-03-07T06:44:48.617Z,16.88
2018-03-07T06:45:48.760Z,16.88
2018-03-07T06:46:48.913Z,16.88
2018-03-07T06:47:49.060Z,16.88
2018-03-07T06:48:49.211Z,16.88
2018-03-07T06:49:49.363Z,16.88
2018-03-07T06:50:49.511Z,16.88
2018-03-07T06:51:49.663Z,16.88
2018-03-07T06:52:49.874Z,16.88
2018-03-07T06:53:49.963Z,16.88
2018-03-07T06:54:50.124Z,16.88
2018-03-07T06:55:50.264Z,16.88
2018-03-07T06:56:50.415Z,16.88
2018-03-07T06:57:50.569Z,16.88
2018-03-07T06:58:50.724Z,16.88
2018-03-07T06:59:50.878Z,16.88
2018-03-07T07:00:51.020Z,16.88
2018-03-07T07:01:51.167Z,16.88
2018-03-07T07:02:51.328Z,16.88
2018-03-07T07:03:51.484Z,16.88
2018-03-07T07:04:51.625Z,16.88
2018-03-07T07:05:51.785Z,16.88
2018-03-07T07:06:51.935Z,16.88
2018-03-07T07:07:52.080Z,16.88
2018-03-07T07:08:52.233Z,16.88
2018-03-07T07:09:52.383Z,22.50
2018-03-07T07:10:52.532Z,22.50
2018-03-07T07:11:52.681Z,22.50
2018-03-07T07:12:52.837Z,22.50
2018-03-07T07:13:53.020Z,22.50
2018-03-07T07:14:53.140Z,22.50
2018-03-07T07:15:53.287Z,22.50
2018-03-07T07:16:53.510Z,22.50
2018-03-07T07:17:53.589Z,22.50
2018-03-07T07:19:53.879Z,22.50
2018-03-07T07:20:54.035Z,22.50
2018-03-07T07:21:54.186Z,22.50
2018-03-07T07:22:54.333Z,22.50
2018-03-07T07:23:54.482Z,22.50
2018-03-07T07:24:54.630Z,22.50
2018-03-07T07:25:54.782Z,22.50
2018-03-07T07:26:54.934Z,22.50
2018-03-07T07:27:55.082Z,28.13
2018-03-07T07:28:55.237Z,28.13
2018-03-07T07:29:55.385Z,28.13
2018-03-07T07:30:55.534Z,33.75
2018-03-07T07:31:55.686Z,33.75
2018-03-07T07:32:55.842Z,33.75
2018-03-07T07:33:55.990Z,39.38
2018-03-07T07:34:56.140Z,39.38
2018-03-07T07:35:56.293Z,39.38
2018-03-07T07:36:56.431Z,39.38
2018-03-07T07:37:56.610Z,45.00
2018-03-07T07:38:56.764Z,45.00
2018-03-07T07:39:56.915Z,56.25
2018-03-07T07:40:57.076Z,61.88
2018-03-07T07:41:57.221Z,73.13
2018-03-07T07:42:57.375Z,84.38
2018-03-07T07:43:57.517Z,95.63
2018-03-07T07:44:57.672Z,106.88
2018-03-07T07:45:57.828Z,112.50
2018-03-07T07:46:58.224Z,118.13
2018-03-07T07:47:58.123Z,118.13
2018-03-07T07:48:58.275Z,118.13
2018-03-07T07:49:58.424Z,118.13
2018-03-07T07:50:58.571Z,123.75
2018-03-07T07:51:58.725Z,123.75
2018-03-07T07:52:58.876Z,123.75
2018-03-07T07:53:59.035Z,118.13
2018-03-07T07:54:59.184Z,118.13
2018-03-07T07:55:59.330Z,123.75
2018-03-07T07:56:59.481Z,123.75
2018-03-07T07:57:59.638Z,118.13
2018-03-07T07:59:59.927Z,123.75
2018-03-07T08:01:00.077Z,135.00
2018-03-07T08:02:00.233Z,151.88
2018-03-07T08:03:00.380Z,163.13
2018-03-07T08:04:00.528Z,174.38
2018-03-07T08:05:00.674Z,180.00
2018-03-07T08:06:00.832Z,191.25
2018-03-07T08:07:00.975Z,196.88
2018-03-07T08:08:01.128Z,208.13
2018-03-07T08:09:01.287Z,213.75
2018-03-07T08:10:01.430Z,236.25
2018-03-07T08:11:01.580Z,258.75
2018-03-07T08:12:01.783Z,286.88
2018-03-07T08:13:01.883Z,309.38
2018-03-07T08:14:02.031Z,320.63
2018-03-07T08:15:02.183Z,331.88
2018-03-07T08:16:02.346Z,337.50
2018-03-07T08:17:02.491Z,337.50
2018-03-07T08:18:02.665Z,343.13
2018-03-07T08:19:02.785Z,343.13
2018-03-07T08:20:02.937Z,315.00
2018-03-07T08:21:03.093Z,286.88
2018-03-07T08:22:03.244Z,264.38
2018-03-07T08:23:03.399Z,253.13
2018-03-07T08:24:03.549Z,253.13
2018-03-07T08:25:03.703Z,241.88
2018-03-07T08:26:03.857Z,230.63
2018-03-07T08:27:04.006Z,230.63
2018-03-07T08:28:04.160Z,219.38
2018-03-07T08:29:04.313Z,208.13
2018-03-07T08:30:04.466Z,202.50
2018-03-07T08:31:04.615Z,202.50
2018-03-07T08:32:04.762Z,196.88
2018-03-07T08:33:04.915Z,202.50
2018-03-07T08:34:05.107Z,213.75
2018-03-07T08:35:05.201Z,208.13
2018-03-07T08:36:05.352Z,191.25
2018-03-07T08:37:05.514Z,163.13
2018-03-07T08:38:05.658Z,157.50
2018-03-07T08:39:05.812Z,157.50
2018-03-07T08:40:05.963Z,163.13
2018-03-07T08:41:06.109Z,191.25
2018-03-07T08:42:06.269Z,213.75
2018-03-07T08:43:06.415Z,270.00
2018-03-07T08:44:06.568Z,253.13
2018-03-07T08:45:06.717Z,230.63
2018-03-07T08:46:06.869Z,213.75
2018-03-07T08:47:07.021Z,180.00
2018-03-07T08:48:07.171Z,168.75
2018-03-07T08:49:07.373Z,202.50
2018-03-07T08:50:07.475Z,258.75
2018-03-07T08:51:07.628Z,331.88
2018-03-07T08:52:07.778Z,393.75
2018-03-07T08:53:07.932Z,478.13
2018-03-07T08:54:08.076Z,500.63
2018-03-07T08:55:08.230Z,613.13
2018-03-07T08:56:08.386Z,545.63
2018-03-07T08:57:08.540Z,534.38
2018-03-07T08:58:08.689Z,461.25
2018-03-07T08:59:08.842Z,450.00
2018-03-07T09:00:09.026Z,421.88
2018-03-07T09:01:09.137Z,399.38
2018-03-07T09:02:09.290Z,382.50
2018-03-07T09:03:09.443Z,416.25
2018-03-07T09:04:09.598Z,388.13
2018-03-07T09:05:09.748Z,371.25
2018-03-07T09:06:09.900Z,315.00
2018-03-07T09:07:10.051Z,354.38
2018-03-07T09:08:10.202Z,348.75
2018-03-07T09:09:10.357Z,343.13
2018-03-07T09:10:10.521Z,371.25
2018-03-07T09:11:10.666Z,382.50
2018-03-07T09:12:10.814Z,393.75
2018-03-07T09:13:10.982Z,393.75
2018-03-07T09:14:11.123Z,416.25
2018-03-07T09:15:11.274Z,405.00
2018-03-07T09:16:11.423Z,433.13
2018-03-07T09:17:11.579Z,433.13
2018-03-07T09:18:11.789Z,450.00
2018-03-07T09:19:11.879Z,433.13
2018-03-07T09:20:12.030Z,427.50
2018-03-07T09:21:12.184Z,399.38
2018-03-07T09:22:12.336Z,365.63
2018-03-07T09:23:12.490Z,348.75
2018-03-07T09:24:12.642Z,365.63
2018-03-07T09:25:12.797Z,343.13
2018-03-07T09:26:12.945Z,337.50
2018-03-07T09:27:13.098Z,331.88
2018-03-07T09:28:13.253Z,337.50
2018-03-07T09:29:13.413Z,348.75
2018-03-07T09:30:13.566Z,337.50
2018-03-07T09:31:13.709Z,365.63
2018-03-07T09:32:13.862Z,388.13
2018-03-07T09:33:14.015Z,382.50
2018-03-07T09:34:14.169Z,438.75
2018-03-07T09:35:14.324Z,478.13
2018-03-07T09:36:14.477Z,511.88
2018-03-07T09:37:14.631Z,545.63
2018-03-07T09:38:14.775Z,506.25
2018-03-07T09:39:14.930Z,495.00
2018-03-07T09:40:15.080Z,495.00
2018-03-07T09:41:15.263Z,511.88
2018-03-07T09:42:15.381Z,506.25
2018-03-07T09:43:15.542Z,500.63
2018-03-07T09:44:15.950Z,472.50
2018-03-07T09:45:15.847Z,416.25
2018-03-07T09:46:16.002Z,382.50
2018-03-07T09:48:16.309Z,444.38
2018-03-07T09:49:16.450Z,433.13
2018-03-07T09:50:16.606Z,410.63
2018-03-07T09:51:16.762Z,382.50
2018-03-07T09:52:16.906Z,388.13
2018-03-07T09:53:17.058Z,438.75
2018-03-07T09:54:17.221Z,472.50
2018-03-07T09:55:17.370Z,433.13
2018-03-07T09:56:17.617Z,545.63
2018-03-07T09:57:17.672Z,781.88
2018-03-07T09:58:17.835Z,849.38
2018-03-07T09:59:17.982Z,686.25
2018-03-07T10:00:18.140Z,601.88
2018-03-07T10:01:18.293Z,573.75
2018-03-07T10:02:18.448Z,579.38
2018-03-07T10:03:18.602Z,579.38
2018-03-07T10:04:18.753Z,601.88
2018-03-07T10:05:18.912Z,624.38
2018-03-07T10:06:19.069Z,736.88
2018-03-07T10:07:19.221Z,697.50
2018-03-07T10:08:19.368Z,613.13
2018-03-07T10:09:19.524Z,601.88
2018-03-07T10:10:19.683Z,635.63
2018-03-07T10:11:19.836Z,714.38
2018-03-07T10:12:19.997Z,646.88
2018-03-07T10:13:20.144Z,590.63
2018-03-07T10:14:20.297Z,540.00
2018-03-07T10:15:20.728Z,528.75
2018-03-07T10:16:20.618Z,506.25
2018-03-07T10:17:20.757Z,534.38
2018-03-07T10:18:20.912Z,540.00
2018-03-07T10:19:21.064Z,528.75
2018-03-07T10:20:21.222Z,495.00
2018-03-07T10:21:21.393Z,511.88
2018-03-07T10:22:21.529Z,466.88
2018-03-07T10:23:21.680Z,410.63
2018-03-07T10:24:21.866Z,399.38
2018-03-07T10:25:21.985Z,433.13
2018-03-07T10:26:22.135Z,416.25
2018-03-07T10:27:22.291Z,438.75
2018-03-07T10:28:22.446Z,495.00
2018-03-07T10:29:22.607Z,483.75
2018-03-07T10:30:22.754Z,461.25
2018-03-07T10:31:22.915Z,528.75
2018-03-07T10:32:23.065Z,489.38
2018-03-07T10:33:23.228Z,461.25
2018-03-07T10:34:23.376Z,405.00
2018-03-07T10:35:23.531Z,393.75
2018-03-07T10:36:23.683Z,388.13
2018-03-07T10:37:23.841Z,478.13
2018-03-07T10:38:23.999Z,393.75
2018-03-07T10:39:24.149Z,371.25
2018-03-07T10:40:24.310Z,483.75
2018-03-07T10:41:24.456Z,495.00
2018-03-07T10:42:24.613Z,405.00
2018-03-07T10:43:24.768Z,450.00
2018-03-07T10:44:24.921Z,416.25
2018-03-07T10:45:25.075Z,450.00
2018-03-07T10:46:25.228Z,461.25
2018-03-07T10:47:25.388Z,511.88
2018-03-07T10:48:25.543Z,472.50
2018-03-07T10:49:25.725Z,348.75
2018-03-07T10:50:25.851Z,298.13
2018-03-07T10:51:25.993Z,258.75
2018-03-07T10:52:26.153Z,236.25
2018-03-07T10:53:26.303Z,241.88
2018-03-07T10:54:26.449Z,275.63
2018-03-07T10:55:26.609Z,309.38
2018-03-07T10:56:26.776Z,365.63
2018-03-07T10:57:26.920Z,523.13
2018-03-07T10:58:27.074Z,556.88
2018-03-07T10:59:27.231Z,618.75
2018-03-07T11:00:27.385Z,596.25
2018-03-07T11:01:27.544Z,568.13
2018-03-07T11:02:27.696Z,410.63
2018-03-07T11:03:27.852Z,393.75
2018-03-07T11:04:28.002Z,495.00
2018-03-07T11:05:28.158Z,371.25
2018-03-07T11:06:28.314Z,337.50
2018-03-07T11:07:28.469Z,315.00
2018-03-07T11:08:28.675Z,303.75
2018-03-07T11:09:28.781Z,303.75
2018-03-07T11:10:28.933Z,320.63
2018-03-07T11:11:29.088Z,331.88
2018-03-07T11:12:29.242Z,343.13
2018-03-07T11:13:29.395Z,337.50
2018-03-07T11:14:29.575Z,320.63
2018-03-07T11:15:29.698Z,315.00
2018-03-07T11:16:29.858Z,331.88
2018-03-07T11:17:30.275Z,405.00
2018-03-07T11:18:30.169Z,562.50
2018-03-07T11:19:30.322Z,652.50
2018-03-07T11:20:30.492Z,720.00
2018-03-07T11:21:30.629Z,540.00
2018-03-07T11:22:30.782Z,731.25
2018-03-07T11:23:30.941Z,708.75
2018-03-07T11:24:31.102Z,742.50
2018-03-07T11:25:31.252Z,646.88
2018-03-07T11:26:31.406Z,523.13
2018-03-07T11:27:31.563Z,691.88
2018-03-07T11:28:31.778Z,579.38
2018-03-07T11:29:31.873Z,540.00
2018-03-07T11:30:32.027Z,523.13
2018-03-07T11:31:32.184Z,517.50
2018-03-07T11:32:32.343Z,551.25
2018-03-07T11:33:32.495Z,489.38
2018-03-07T11:34:32.656Z,495.00
2018-03-07T11:35:32.806Z,686.25
2018-03-07T11:36:32.963Z,472.50
2018-03-07T11:37:33.136Z,416.25
2018-03-07T11:38:33.276Z,399.38
2018-03-07T11:39:33.430Z,393.75
2018-03-07T11:40:33.583Z,343.13
2018-03-07T11:41:33.743Z,275.63
2018-03-07T11:42:33.903Z,241.88
2018-03-07T11:43:34.050Z,286.88
2018-03-07T11:44:34.210Z,343.13
2018-03-07T11:45:34.358Z,416.25
2018-03-07T11:46:34.514Z,399.38
2018-03-07T11:47:34.667Z,388.13
2018-03-07T11:48:34.823Z,568.13
2018-03-07T11:49:34.976Z,382.50
2018-03-07T11:50:35.133Z,331.88
2018-03-07T11:51:35.285Z,320.63
2018-03-07T11:52:35.442Z,337.50
2018-03-07T11:53:35.597Z,331.88
2018-03-07T11:54:35.765Z,450.00
2018-03-07T11:55:35.915Z,315.00
2018-03-07T11:56:36.066Z,376.88
2018-03-07T11:57:36.223Z,450.00
2018-03-07T11:58:36.375Z,466.88
2018-03-07T11:59:36.532Z,478.13
2018-03-07T12:00:36.683Z,461.25
2018-03-07T12:01:36.838Z,444.38
2018-03-07T12:02:36.997Z,438.75
2018-03-07T12:03:37.145Z,421.88
2018-03-07T12:04:37.299Z,427.50
2018-03-07T12:05:37.454Z,427.50
2018-03-07T12:06:37.620Z,438.75
2018-03-07T12:07:37.767Z,421.88
2018-03-07T12:08:37.919Z,382.50
2018-03-07T12:09:38.071Z,382.50
2018-03-07T12:10:38.247Z,405.00
2018-03-07T12:11:38.376Z,444.38
2018-03-07T12:12:38.530Z,405.00
2018-03-07T12:13:38.684Z,360.00
2018-03-07T12:14:38.827Z,331.88
2018-03-07T12:15:38.983Z,264.38
2018-03-07T12:16:39.143Z,213.75
2018-03-07T12:17:39.342Z,208.13
2018-03-07T12:18:39.452Z,191.25
2018-03-07T12:19:39.641Z,196.88
2018-03-07T12:20:39.759Z,191.25
2018-03-07T12:21:39.925Z,180.00
2018-03-07T12:22:40.116Z,180.00
2018-03-07T12:23:40.220Z,168.75
2018-03-07T12:24:40.380Z,163.13
2018-03-07T12:25:40.529Z,151.88
2018-03-07T12:26:40.680Z,151.88
2018-03-07T12:27:40.840Z,174.38
2018-03-07T12:28:40.993Z,202.50
2018-03-07T12:29:41.153Z,219.38
2018-03-07T12:30:41.305Z,225.00
2018-03-07T12:31:41.452Z,196.88
2018-03-07T12:32:41.606Z,185.63
2018-03-07T12:33:41.757Z,185.63
2018-03-07T12:34:41.900Z,168.75
2018-03-07T12:35:42.060Z,180.00
2018-03-07T12:36:42.218Z,168.75
2018-03-07T12:37:42.373Z,163.13
2018-03-07T12:38:42.526Z,168.75
2018-03-07T12:39:42.681Z,174.38
2018-03-07T12:40:42.836Z,174.38
2018-03-07T12:41:42.989Z,185.63
2018-03-07T12:42:43.342Z,174.38
2018-03-07T12:43:43.472Z,157.50
2018-03-07T12:44:43.449Z,157.50
2018-03-07T12:45:43.600Z,168.75
2018-03-07T12:46:43.754Z,174.38
2018-03-07T12:47:43.913Z,168.75
2018-03-07T12:48:44.061Z,146.25
2018-03-07T12:49:44.218Z,135.00
2018-03-07T12:50:44.366Z,123.75
2018-03-07T12:51:44.523Z,118.13
2018-03-07T12:52:44.685Z,112.50
2018-03-07T12:53:44.833Z,118.13
2018-03-07T12:54:44.978Z,129.38
2018-03-07T12:55:45.129Z,157.50
2018-03-07T12:56:45.277Z,180.00
2018-03-07T12:57:45.436Z,174.38
2018-03-07T12:58:45.588Z,191.25
2018-03-07T12:59:45.754Z,196.88
2018-03-07T13:00:45.883Z,191.25
2018-03-07T13:01:46.037Z,180.00
2018-03-07T13:02:46.194Z,157.50
2018-03-07T13:03:46.345Z,146.25
2018-03-07T13:04:46.495Z,157.50
2018-03-07T13:05:46.663Z,151.88